createdAt,value
2023-01-11T04:57:35.029Z,100753.31
2023-01-11T05:00:37.629Z,100753.31
2023-01-11T05:03:39.793Z,100760.16
2023-01-11T05:06:42.496Z,100771.84
2023-01-11T05:09:44.910Z,100776.34
2023-01-11T05:12:47.252Z,100773.81
2023-01-11T05:15:49.386Z,100766.91
2023-01-11T05:18:54.030Z,100760.53
2023-01-11T05:21:56.147Z,100754.56
2023-01-11T05:24:58.535Z,100764.28
2023-01-11T05:28:00.636Z,100772.59
2023-01-11T05:31:03.183Z,100789.66
2023-01-11T05:34:06.950Z,100781.97
2023-01-11T05:37:09.293Z,100777.75
2023-01-11T05:40:11.886Z,100763.16
2023-01-11T05:43:14.286Z,100756.69
2023-01-11T05:46:16.443Z,100763.72
2023-01-11T05:49:19.701Z,100768.47
2023-01-11T05:52:24.916Z,100762.44
2023-01-11T05:55:28.146Z,100756.38
2023-01-11T05:58:31.909Z,100761.06
2023-01-11T06:01:36.299Z,100758.72
2023-01-11T06:04:41.308Z,100754.94
2023-01-11T06:07:46.380Z,100742.09
2023-01-11T06:10:56.870Z,100747.38
2023-01-11T06:14:00.818Z,100746.47
2023-01-11T06:17:05.850Z,100763.38
2023-01-11T06:20:09.685Z,100763.63
2023-01-11T06:23:13.113Z,100754.31
2023-01-11T06:26:17.559Z,100756.53
2023-01-11T06:29:20.422Z,100760.97
2023-01-11T06:32:22.546Z,100756.50
2023-01-11T06:35:24.963Z,100762.59
2023-01-11T06:38:28.539Z,100758.13
2023-01-11T06:41:31.994Z,100765.72
2023-01-11T06:44:34.111Z,100773.63
2023-01-11T06:47:36.703Z,100775.59
2023-01-11T06:50:38.860Z,100783.34
2023-01-11T06:53:42.433Z,100791.28
2023-01-11T06:56:45.065Z,100789.63
2023-01-11T06:59:47.982Z,100801.19
2023-01-11T07:02:50.639Z,100804.09
2023-01-11T07:05:54.351Z,100806.37
2023-01-11T07:08:56.436Z,100811.41
2023-01-11T07:11:59.118Z,100815.00
2023-01-11T07:15:02.031Z,100826.19
2023-01-11T07:18:05.046Z,100842.06
2023-01-11T07:21:07.196Z,100847.47
2023-01-11T07:24:09.716Z,100855.19
2023-01-11T07:27:11.974Z,100848.50
2023-01-11T07:30:14.487Z,100855.66
2023-01-11T07:33:16.639Z,100861.94
2023-01-11T07:36:19.083Z,100867.37
2023-01-11T07:39:26.818Z,100873.06
2023-01-11T07:42:54.113Z,100867.06
2023-01-11T07:45:57.537Z,100856.63
2023-01-11T07:49:01.031Z,100849.31
2023-01-11T07:52:05.204Z,100850.78
2023-01-11T07:55:10.106Z,100848.56
2023-01-11T07:58:13.036Z,100844.03
2023-01-11T08:01:15.441Z,100837.69
2023-01-11T08:04:17.908Z,100851.47
2023-01-11T08:07:20.161Z,100846.75
2023-01-11T08:10:22.632Z,100847.00
2023-01-11T08:13:43.590Z,100845.53
2023-01-11T08:16:46.201Z,100854.69
2023-01-11T08:19:48.367Z,100861.47
2023-01-11T08:22:50.802Z,100864.28
2023-01-11T08:25:56.989Z,100862.09
2023-01-11T08:28:59.388Z,100866.06
2023-01-11T08:32:02.420Z,100876.47
2023-01-11T08:35:06.158Z,100869.50
2023-01-11T08:38:08.375Z,100886.97
2023-01-11T08:41:10.985Z,100882.91
2023-01-11T08:44:15.034Z,100880.47
2023-01-11T08:47:17.875Z,100886.62
2023-01-11T08:50:22.159Z,100865.81
2023-01-11T08:53:25.236Z,100869.47
2023-01-11T08:56:27.312Z,100881.06
2023-01-11T08:59:29.657Z,100875.84
2023-01-11T09:02:31.765Z,100873.34
2023-01-11T09:05:34.631Z,100878.56
2023-01-11T09:08:36.832Z,100885.44
2023-01-11T09:11:54.803Z,100882.78
2023-01-11T09:14:57.078Z,100879.62
2023-01-11T09:17:59.487Z,100878.41
2023-01-11T09:21:01.723Z,100879.59
2023-01-11T09:24:05.079Z,100883.72
2023-01-11T09:27:07.302Z,100890.63
2023-01-11T09:30:11.574Z,100876.31
2023-01-11T09:33:13.659Z,100875.56
2023-01-11T09:36:18.873Z,100871.97
2023-01-11T09:39:24.410Z,100870.44
2023-01-11T09:42:36.758Z,100873.53
2023-01-11T09:45:46.587Z,100868.41
2023-01-11T09:48:58.719Z,100866.59
2023-01-11T09:52:20.844Z,100869.94
2023-01-11T09:55:36.371Z,100862.34
2023-01-11T09:58:48.959Z,100854.81
2023-01-11T10:02:07.970Z,100859.69
2023-01-11T10:05:21.796Z,100844.84
2023-01-11T10:18:39.949Z,100826.97
2023-01-11T10:19:57.478Z,100821.69
2023-01-11T10:23:09.118Z,100825.38
2023-01-11T10:26:25.081Z,100820.69
2023-01-11T10:29:57.767Z,100820.19
2023-01-11T10:33:25.361Z,100826.84
2023-01-11T10:36:53.551Z,100825.84
2023-01-11T10:40:22.160Z,100826.34
2023-01-11T10:43:26.777Z,100828.69
2023-01-11T10:46:32.054Z,100820.09
2023-01-11T10:49:51.954Z,100826.59
2023-01-11T10:53:11.043Z,100836.50
2023-01-11T10:56:32.041Z,100832.22
2023-01-11T10:59:50.835Z,100829.78
2023-01-11T11:03:21.450Z,100826.00
2023-01-11T11:06:39.103Z,100827.44
2023-01-11T11:09:49.427Z,100825.06
2023-01-11T11:13:04.780Z,100826.16
2023-01-11T11:16:22.954Z,100814.13
2023-01-11T11:19:30.271Z,100805.53
2023-01-11T11:22:32.815Z,100795.03
2023-01-11T11:25:43.303Z,100791.53
2023-01-11T11:29:05.172Z,100786.72
2023-01-11T11:32:19.952Z,100788.63
2023-01-11T11:35:36.498Z,100785.44
2023-01-11T11:38:59.080Z,100788.38
2023-01-11T11:42:07.395Z,100785.94
2023-01-11T11:45:09.807Z,100784.88
2023-01-11T11:48:11.969Z,100780.34
2023-01-11T11:51:22.362Z,100783.56
2023-01-11T11:54:28.562Z,100784.09
2023-01-11T11:57:42.370Z,100789.69
2023-01-11T12:00:48.089Z,100782.13
2023-01-11T12:03:59.372Z,100783.00
2023-01-11T12:07:15.843Z,100787.31
2023-01-11T12:10:20.725Z,100789.97
2023-01-11T12:13:42.662Z,100791.56
2023-01-11T12:16:46.162Z,100781.34
2023-01-11T12:19:48.411Z,100782.34
2023-01-11T12:23:10.292Z,100782.37
2023-01-11T12:26:21.774Z,100792.78
2023-01-11T12:29:33.375Z,100788.19
2023-01-11T12:32:50.839Z,100790.09
2023-01-11T12:36:09.187Z,100796.31
2023-01-11T12:39:35.885Z,100791.03
2023-01-11T12:42:56.372Z,100808.16
2023-01-11T12:46:11.216Z,100795.31
2023-01-11T12:49:33.543Z,100791.84
2023-01-11T12:52:56.891Z,100803.66
2023-01-11T12:56:32.212Z,100796.72
2023-01-11T13:00:02.064Z,100798.56
2023-01-11T13:03:35.549Z,100791.31
2023-01-11T13:06:45.009Z,100777.94
2023-01-11T13:09:50.162Z,100779.53
2023-01-11T13:13:00.881Z,100780.34
2023-01-11T13:16:17.046Z,100790.00
2023-01-11T13:19:27.006Z,100785.97
2023-01-11T13:22:34.635Z,100785.41
2023-01-11T13:25:41.581Z,100787.03
2023-01-11T13:28:49.611Z,100795.59
2023-01-11T13:31:54.244Z,100794.25
2023-01-11T13:35:18.117Z,100802.00
2023-01-11T13:38:40.739Z,100799.91
2023-01-11T13:41:50.695Z,100804.69
2023-01-11T13:45:00.689Z,100806.31
2023-01-11T13:48:16.280Z,100810.34
2023-01-11T13:51:51.169Z,100798.53
2023-01-11T13:55:01.986Z,100792.66
2023-01-11T13:58:16.614Z,100800.94
2023-01-11T14:01:51.337Z,100810.88
2023-01-11T14:05:15.716Z,100809.53
2023-01-11T14:08:42.087Z,100810.88
2023-01-11T14:11:58.442Z,100807.91
2023-01-11T14:15:12.564Z,100804.97
2023-01-11T14:18:44.580Z,100805.75
2023-01-11T14:21:59.545Z,100807.91
2023-01-11T14:25:28.005Z,100796.13
2023-01-11T14:28:51.398Z,100794.75
2023-01-11T14:32:20.248Z,100796.63
2023-01-11T14:35:51.920Z,100796.13
2023-01-11T14:39:44.759Z,100801.75
2023-01-11T14:43:12.918Z,100795.84
2023-01-11T14:46:36.284Z,100799.06
2023-01-11T14:50:07.338Z,100797.44
2023-01-11T14:53:17.330Z,100795.03
2023-01-11T14:56:44.115Z,100789.41
2023-01-11T14:59:46.486Z,100785.66
2023-01-11T15:03:01.181Z,100783.75
2023-01-11T15:06:16.723Z,100784.25
2023-01-11T15:09:48.562Z,100792.78
2023-01-11T15:12:56.293Z,100788.75
2023-01-11T15:16:29.583Z,100790.63
2023-01-11T15:19:34.404Z,100793.53
2023-01-11T15:22:37.003Z,100795.63
2023-01-11T15:25:39.494Z,100799.66
2023-01-11T15:29:00.256Z,100803.37
2023-01-11T15:32:07.236Z,100808.16
2023-01-11T15:35:24.833Z,100802.47
2023-01-11T15:38:30.534Z,100807.19
2023-01-11T15:42:04.143Z,100797.84
2023-01-11T15:45:18.834Z,100801.28
2023-01-11T15:48:51.200Z,100799.44
2023-01-11T15:52:08.625Z,100792.75
2023-01-11T15:55:48.287Z,100791.88
2023-01-11T15:59:05.943Z,100805.19
2023-01-11T16:02:45.217Z,100809.59
2023-01-11T16:05:59.806Z,100813.78
2023-01-11T16:09:37.354Z,100809.13
2023-01-11T16:13:17.191Z,100807.25
2023-01-11T16:16:29.374Z,100802.09
2023-01-11T16:19:35.724Z,100798.63
2023-01-11T16:22:38.899Z,100798.22
2023-01-11T16:25:42.400Z,100805.84
2023-01-11T16:28:50.773Z,100802.22
2023-01-11T16:31:58.888Z,100793.31
2023-01-11T16:35:02.613Z,100788.34
2023-01-11T16:38:06.307Z,100788.91
2023-01-11T16:41:13.058Z,100800.84
2023-01-11T16:44:23.296Z,100795.56
2023-01-11T16:47:25.448Z,100798.28
2023-01-11T16:50:28.450Z,100798.06
